Buoy 52514

sailwx.info

Track history (hours):
 
Tides and Currents Weather Stations Pressure Air Temp Water Temp Dewpoint Dewpoint Depression Visibility Wind Speed Wind Dir Waves Ship Positions

Drifting buoy 52514

Last reported at 2015-Sep-01 19:00 UTC. Time now 2015-Sep-02 00:26 UTC.
Position N 24°09' E 125°27'.

Date/timePositionNaut miles runAvg speedWind from/ knotsBaromVisibWave heightAir tempDewpointWater temp
2015-Sep-01 19:00N 24°09' E 125°27'12 1.2
2015-Sep-01 09:00N 24°00' E 125°18'0 0.4
2015-Sep-01 08:00N 24°00' E 125°19'2 1.8
2015-Sep-01 07:00N 23°60' E 125°17'1 0.7
2015-Sep-01 05:00N 23°59' E 125°15'3 0.9
2015-Sep-01 02:00N 23°59' E 125°12'5 1.0
2015-Aug-31 21:00N 23°57' E 125°07'2 1.8
2015-Aug-31 20:00N 23°56' E 125°05'8 1.0
2015-Aug-31 12:00N 23°50' E 124°60'5 1.8
2015-Aug-31 09:00N 23°47' E 124°54'3 0.9
2015-Aug-31 05:00N 23°45' E 124°52'8 0.9
2015-Aug-30 20:00N 23°42' E 124°44'3 1.1
2015-Aug-30 17:00N 23°40' E 124°40'0 0.0
2015-Aug-30 16:00N 23°40' E 124°40'7 2.3
2015-Aug-30 13:00N 23°36' E 124°34'4 1.3
2015-Aug-30 10:00N 23°34' E 124°31'2 1.2
2015-Aug-30 08:00N 23°32' E 124°29'2 2.0
2015-Aug-30 07:00N 23°31' E 124°28'5 0.5
2015-Aug-29 22:00N 23°27' E 124°24'2 1.7
2015-Aug-29 21:00N 23°27' E 124°22'3 0.9
2015-Aug-29 18:00N 23°27' E 124°19'0 0.0
2015-Aug-29 17:00N 23°27' E 124°19'13 1.9
2015-Aug-29 10:00N 23°20' E 124°07'6 1.2
2015-Aug-29 05:00N 23°15' E 124°04'6 0.8
2015-Aug-28 22:00N 23°09' E 124°04'0 0.5
2015-Aug-28 21:00N 23°09' E 124°04'5 0.5
2015-Aug-28 12:00N 23°07' E 123°59'6 1.6
2015-Aug-28 08:00N 23°02' E 123°54'0 0.0
2015-Aug-28 07:00N 23°02' E 123°54'4 2.2
2015-Aug-28 05:00N 22°59' E 123°51'5 1.6
2015-Aug-28 02:00N 22°54' E 123°52'4 1.1
2015-Aug-27 22:00N 22°50' E 123°53'10 0.7
2015-Aug-27 08:00N 22°40' E 123°51'2 0.7
2015-Aug-27 05:00N 22°38' E 123°49'3 3.2
2015-Aug-27 04:00N 22°35' E 123°48'4 0.6
2015-Aug-26 21:00N 22°31' E 123°48'5 0.6
2015-Aug-26 12:00N 22°28' E 123°43'1 0.7
2015-Aug-26 10:00N 22°27' E 123°42'1 0.7
2015-Aug-26 08:00N 22°26' E 123°41'1 0.4
2015-Aug-26 06:00N 22°26' E 123°40'0 0.0
2015-Aug-26 05:00N 22°26' E 123°40'2 0.2
2015-Aug-25 21:00N 22°26' E 123°38'0 0.0
2015-Aug-25 20:00N 22°26' E 123°38'2 0.7
2015-Aug-25 17:00N 22°27' E 123°37'11 1.0
2015-Aug-25 06:00N 22°26' E 123°25'2 1.5
2015-Aug-25 05:00N 22°26' E 123°23'0 0.2
2015-Aug-25 04:00N 22°26' E 123°23'2 1.7
2015-Aug-25 03:00N 22°25' E 123°21'4 0.5
2015-Aug-24 19:00N 22°21' E 123°21'1 1.0
2015-Aug-24 18:00N 22°21' E 123°21'9 1.0
2015-Aug-24 09:00N 22°27' E 123°15'15 1.5
2015-Aug-23 23:00N 22°23' E 122°60'2 0.7
2015-Aug-23 20:00N 22°21' E 122°60'1 0.5
2015-Aug-23 19:00N 22°21' E 123°00'6 0.6
2015-Aug-23 09:00N 22°27' E 122°59'0 0.2
2015-Aug-23 08:00N 22°27' E 122°59'5 1.8
2015-Aug-23 05:00N 22°31' E 122°55'4 1.3
2015-Aug-23 02:00N 22°32' E 122°51'4 0.8
2015-Aug-22 21:00N 22°33' E 122°47'1 1.4
2015-Aug-22 20:00N 22°34' E 122°48'  
Track history (hours):
 
Tides and Currents Weather Stations Pressure Air Temp Water Temp Dewpoint Dewpoint Depression Visibility Wind Speed Wind Dir Waves Ship Positions

Drifting buoy 52514

Last reported at 2015-Sep-01 19:00 UTC. Time now 2015-Sep-02 00:26 UTC.
Position N 24°09' E 125°27'.

Date/timePositionNaut miles runAvg speedWind from/ knotsBaromVisibWave heightAir tempDewpointWater temp
2015-Sep-01 19:00N 24°09' E 125°27'12 1.2
2015-Sep-01 09:00N 24°00' E 125°18'0 0.4
2015-Sep-01 08:00N 24°00' E 125°19'2 1.8
2015-Sep-01 07:00N 23°60' E 125°17'1 0.7
2015-Sep-01 05:00N 23°59' E 125°15'3 0.9
2015-Sep-01 02:00N 23°59' E 125°12'5 1.0
2015-Aug-31 21:00N 23°57' E 125°07'2 1.8
2015-Aug-31 20:00N 23°56' E 125°05'8 1.0
2015-Aug-31 12:00N 23°50' E 124°60'5 1.8
2015-Aug-31 09:00N 23°47' E 124°54'3 0.9
2015-Aug-31 05:00N 23°45' E 124°52'8 0.9
2015-Aug-30 20:00N 23°42' E 124°44'3 1.1
2015-Aug-30 17:00N 23°40' E 124°40'0 0.0
2015-Aug-30 16:00N 23°40' E 124°40'7 2.3
2015-Aug-30 13:00N 23°36' E 124°34'4 1.3
2015-Aug-30 10:00N 23°34' E 124°31'2 1.2
2015-Aug-30 08:00N 23°32' E 124°29'2 2.0
2015-Aug-30 07:00N 23°31' E 124°28'5 0.5
2015-Aug-29 22:00N 23°27' E 124°24'2 1.7
2015-Aug-29 21:00N 23°27' E 124°22'3 0.9
2015-Aug-29 18:00N 23°27' E 124°19'0 0.0
2015-Aug-29 17:00N 23°27' E 124°19'13 1.9
2015-Aug-29 10:00N 23°20' E 124°07'6 1.2
2015-Aug-29 05:00N 23°15' E 124°04'6 0.8
2015-Aug-28 22:00N 23°09' E 124°04'0 0.5
2015-Aug-28 21:00N 23°09' E 124°04'5 0.5
2015-Aug-28 12:00N 23°07' E 123°59'6 1.6
2015-Aug-28 08:00N 23°02' E 123°54'0 0.0
2015-Aug-28 07:00N 23°02' E 123°54'4 2.2
2015-Aug-28 05:00N 22°59' E 123°51'5 1.6
2015-Aug-28 02:00N 22°54' E 123°52'4 1.1
2015-Aug-27 22:00N 22°50' E 123°53'10 0.7
2015-Aug-27 08:00N 22°40' E 123°51'2 0.7
2015-Aug-27 05:00N 22°38' E 123°49'3 3.2
2015-Aug-27 04:00N 22°35' E 123°48'4 0.6
2015-Aug-26 21:00N 22°31' E 123°48'5 0.6
2015-Aug-26 12:00N 22°28' E 123°43'1 0.7
2015-Aug-26 10:00N 22°27' E 123°42'1 0.7
2015-Aug-26 08:00N 22°26' E 123°41'1 0.4
2015-Aug-26 06:00N 22°26' E 123°40'0 0.0
2015-Aug-26 05:00N 22°26' E 123°40'2 0.2
2015-Aug-25 21:00N 22°26' E 123°38'0 0.0
2015-Aug-25 20:00N 22°26' E 123°38'2 0.7
2015-Aug-25 17:00N 22°27' E 123°37'11 1.0
2015-Aug-25 06:00N 22°26' E 123°25'2 1.5
2015-Aug-25 05:00N 22°26' E 123°23'0 0.2
2015-Aug-25 04:00N 22°26' E 123°23'2 1.7
2015-Aug-25 03:00N 22°25' E 123°21'4 0.5
2015-Aug-24 19:00N 22°21' E 123°21'1 1.0
2015-Aug-24 18:00N 22°21' E 123°21'9 1.0
2015-Aug-24 09:00N 22°27' E 123°15'15 1.5
2015-Aug-23 23:00N 22°23' E 122°60'2 0.7
2015-Aug-23 20:00N 22°21' E 122°60'1 0.5
2015-Aug-23 19:00N 22°21' E 123°00'6 0.6
2015-Aug-23 09:00N 22°27' E 122°59'0 0.2
2015-Aug-23 08:00N 22°27' E 122°59'5 1.8
2015-Aug-23 05:00N 22°31' E 122°55'4 1.3
2015-Aug-23 02:00N 22°32' E 122°51'4 0.8
2015-Aug-22 21:00N 22°33' E 122°47'1 1.4
2015-Aug-22 20:00N 22°34' E 122°48'  

Dump ship's entire track history